sensor_id;sensor_type;location;lat;lon;timestamp;P1;durP1;ratioP1;P2;durP2;ratioP2
908;SDS011;441;51.192;6.788;2022-12-18T00:02:01;11.83;;;11.40;;
908;SDS011;441;51.192;6.788;2022-12-18T00:04:28;11.30;;;10.90;;
908;SDS011;441;51.192;6.788;2022-12-18T00:06:55;11.27;;;10.80;;
908;SDS011;441;51.192;6.788;2022-12-18T00:09:23;10.93;;;10.33;;
908;SDS011;441;51.192;6.788;2022-12-18T00:11:50;10.70;;;10.20;;
908;SDS011;441;51.192;6.788;2022-12-18T00:14:17;11.47;;;10.97;;
908;SDS011;441;51.192;6.788;2022-12-18T00:16:46;11.60;;;11.00;;
908;SDS011;441;51.192;6.788;2022-12-18T00:19:13;10.77;;;10.37;;
908;SDS011;441;51.192;6.788;2022-12-18T00:21:41;11.23;;;10.63;;
908;SDS011;441;51.192;6.788;2022-12-18T00:24:09;11.20;;;10.70;;
908;SDS011;441;51.192;6.788;2022-12-18T00:26:37;10.67;;;10.17;;
908;SDS011;441;51.192;6.788;2022-12-18T00:29:06;10.50;;;10.10;;
908;SDS011;441;51.192;6.788;2022-12-18T00:31:34;10.07;;;9.63;;
908;SDS011;441;51.192;6.788;2022-12-18T00:34:02;9.90;;;9.40;;
908;SDS011;441;51.192;6.788;2022-12-18T00:36:30;10.30;;;9.90;;
908;SDS011;441;51.192;6.788;2022-12-18T00:38:58;10.93;;;10.33;;
908;SDS011;441;51.192;6.788;2022-12-18T00:41:26;10.67;;;10.27;;
908;SDS011;441;51.192;6.788;2022-12-18T00:44:12;10.47;;;10.10;;
908;SDS011;441;51.192;6.788;2022-12-18T00:46:40;9.73;;;9.43;;
908;SDS011;441;51.192;6.788;2022-12-18T00:49:09;9.57;;;9.27;;
908;SDS011;441;51.192;6.788;2022-12-18T00:51:36;9.97;;;9.57;;
908;SDS011;441;51.192;6.788;2022-12-18T00:54:02;9.53;;;9.23;;
908;SDS011;441;51.192;6.788;2022-12-18T00:56:29;10.10;;;9.70;;
908;SDS011;441;51.192;6.788;2022-12-18T00:58:56;9.67;;;9.27;;
908;SDS011;441;51.192;6.788;2022-12-18T01:01:23;10.33;;;9.93;;
908;SDS011;441;51.192;6.788;2022-12-18T01:03:50;9.97;;;9.57;;
908;SDS011;441;51.192;6.788;2022-12-18T01:06:18;8.50;;;8.30;;
908;SDS011;441;51.192;6.788;2022-12-18T01:08:45;9.63;;;9.23;;
908;SDS011;441;51.192;6.788;2022-12-18T01:11:13;9.60;;;9.20;;
908;SDS011;441;51.192;6.788;2022-12-18T01:13:41;10.17;;;9.77;;
908;SDS011;441;51.192;6.788;2022-12-18T01:16:08;10.37;;;9.87;;
908;SDS011;441;51.192;6.788;2022-12-18T01:18:38;10.10;;;9.70;;
908;SDS011;441;51.192;6.788;2022-12-18T01:21:05;9.70;;;9.30;;
908;SDS011;441;51.192;6.788;2022-12-18T01:23:34;9.73;;;9.33;;
908;SDS011;441;51.192;6.788;2022-12-18T01:26:05;9.73;;;9.33;;
908;SDS011;441;51.192;6.788;2022-12-18T01:28:32;9.93;;;9.53;;
908;SDS011;441;51.192;6.788;2022-12-18T01:31:08;10.10;;;9.60;;
908;SDS011;441;51.192;6.788;2022-12-18T01:33:36;10.00;;;9.50;;
908;SDS011;441;51.192;6.788;2022-12-18T01:36:03;9.43;;;9.13;;
908;SDS011;441;51.192;6.788;2022-12-18T01:38:31;9.90;;;9.50;;
908;SDS011;441;51.192;6.788;2022-12-18T01:40:59;10.87;;;10.27;;
908;SDS011;441;51.192;6.788;2022-12-18T01:43:40;9.90;;;9.40;;
908;SDS011;441;51.192;6.788;2022-12-18T01:46:08;9.37;;;8.97;;
908;SDS011;441;51.192;6.788;2022-12-18T01:48:35;9.87;;;9.47;;
908;SDS011;441;51.192;6.788;2022-12-18T01:51:02;11.00;;;10.40;;
908;SDS011;441;51.192;6.788;2022-12-18T01:53:30;10.80;;;10.40;;
908;SDS011;441;51.192;6.788;2022-12-18T01:55:56;10.20;;;9.80;;
908;SDS011;441;51.192;6.788;2022-12-18T01:58:27;10.90;;;10.40;;
908;SDS011;441;51.192;6.788;2022-12-18T02:00:58;10.30;;;9.80;;
908;SDS011;441;51.192;6.788;2022-12-18T02:03:25;10.70;;;10.10;;
908;SDS011;441;51.192;6.788;2022-12-18T02:05:54;9.70;;;9.40;;
908;SDS011;441;51.192;6.788;2022-12-18T02:08:29;10.50;;;10.10;;
908;SDS011;441;51.192;6.788;2022-12-18T02:11:04;10.47;;;10.07;;
908;SDS011;441;51.192;6.788;2022-12-18T02:13:36;10.00;;;9.70;;
908;SDS011;441;51.192;6.788;2022-12-18T02:16:11;10.60;;;10.20;;
908;SDS011;441;51.192;6.788;2022-12-18T02:18:46;11.03;;;10.60;;
908;SDS011;441;51.192;6.788;2022-12-18T02:21:18;9.87;;;9.47;;
908;SDS011;441;51.192;6.788;2022-12-18T02:23:55;9.83;;;9.47;;
908;SDS011;441;51.192;6.788;2022-12-18T02:26:28;10.37;;;9.97;;
908;SDS011;441;51.192;6.788;2022-12-18T02:29:00;9.50;;;9.10;;
908;SDS011;441;51.192;6.788;2022-12-18T02:31:32;10.30;;;9.83;;
908;SDS011;441;51.192;6.788;2022-12-18T02:34:04;9.87;;;9.47;;
908;SDS011;441;51.192;6.788;2022-12-18T02:36:33;10.00;;;9.60;;
908;SDS011;441;51.192;6.788;2022-12-18T02:39:03;10.13;;;9.70;;
908;SDS011;441;51.192;6.788;2022-12-18T02:41:34;10.30;;;9.90;;
908;SDS011;441;51.192;6.788;2022-12-18T02:44:06;9.80;;;9.50;;
908;SDS011;441;51.192;6.788;2022-12-18T02:46:35;9.93;;;9.53;;
908;SDS011;441;51.192;6.788;2022-12-18T02:49:11;9.80;;;9.50;;
908;SDS011;441;51.192;6.788;2022-12-18T02:51:53;10.53;;;10.03;;
908;SDS011;441;51.192;6.788;2022-12-18T02:54:30;9.17;;;8.87;;
908;SDS011;441;51.192;6.788;2022-12-18T02:57:08;9.70;;;9.40;;
908;SDS011;441;51.192;6.788;2022-12-18T02:59:42;9.30;;;9.00;;
908;SDS011;441;51.192;6.788;2022-12-18T03:02:17;9.10;;;8.80;;
908;SDS011;441;51.192;6.788;2022-12-18T03:04:48;9.70;;;9.40;;
908;SDS011;441;51.192;6.788;2022-12-18T03:07:20;10.00;;;9.60;;
908;SDS011;441;51.192;6.788;2022-12-18T03:09:51;10.53;;;10.13;;
908;SDS011;441;51.192;6.788;2022-12-18T03:12:21;9.97;;;9.50;;
908;SDS011;441;51.192;6.788;2022-12-18T03:14:55;9.50;;;9.13;;
908;SDS011;441;51.192;6.788;2022-12-18T03:17:26;10.00;;;9.53;;
908;SDS011;441;51.192;6.788;2022-12-18T03:19:56;10.47;;;10.07;;
908;SDS011;441;51.192;6.788;2022-12-18T03:22:28;9.47;;;9.07;;
908;SDS011;441;51.192;6.788;2022-12-18T03:24:58;9.57;;;9.17;;
908;SDS011;441;51.192;6.788;2022-12-18T03:27:30;9.20;;;8.80;;
908;SDS011;441;51.192;6.788;2022-12-18T03:30:00;9.40;;;9.10;;
908;SDS011;441;51.192;6.788;2022-12-18T03:32:33;9.40;;;9.00;;
908;SDS011;441;51.192;6.788;2022-12-18T03:35:05;9.93;;;9.40;;
908;SDS011;441;51.192;6.788;2022-12-18T03:37:34;9.40;;;9.10;;
908;SDS011;441;51.192;6.788;2022-12-18T03:40:01;9.07;;;8.77;;
908;SDS011;441;51.192;6.788;2022-12-18T03:42:32;9.53;;;9.13;;
908;SDS011;441;51.192;6.788;2022-12-18T03:45:06;10.20;;;9.70;;
908;SDS011;441;51.192;6.788;2022-12-18T03:47:38;9.60;;;9.20;;
908;SDS011;441;51.192;6.788;2022-12-18T03:50:11;9.80;;;9.30;;
908;SDS011;441;51.192;6.788;2022-12-18T03:52:44;9.53;;;9.23;;
908;SDS011;441;51.192;6.788;2022-12-18T03:55:16;9.37;;;9.07;;
908;SDS011;441;51.192;6.788;2022-12-18T03:57:46;9.33;;;9.03;;
908;SDS011;441;51.192;6.788;2022-12-18T04:00:15;8.87;;;8.57;;
908;SDS011;441;51.192;6.788;2022-12-18T04:02:44;11.13;;;10.73;;
908;SDS011;441;51.192;6.788;2022-12-18T04:05:14;9.47;;;9.17;;
908;SDS011;441;51.192;6.788;2022-12-18T04:07:43;10.30;;;9.90;;
908;SDS011;441;51.192;6.788;2022-12-18T04:10:13;9.90;;;9.40;;
908;SDS011;441;51.192;6.788;2022-12-18T04:12:40;10.93;;;10.53;;
908;SDS011;441;51.192;6.788;2022-12-18T04:15:10;9.63;;;9.33;;
908;SDS011;441;51.192;6.788;2022-12-18T04:17:38;10.03;;;9.60;;
908;SDS011;441;51.192;6.788;2022-12-18T04:20:08;9.83;;;9.43;;
908;SDS011;441;51.192;6.788;2022-12-18T04:22:35;9.80;;;9.40;;
908;SDS011;441;51.192;6.788;2022-12-18T04:25:02;10.03;;;9.63;;
908;SDS011;441;51.192;6.788;2022-12-18T04:27:29;9.57;;;9.27;;
908;SDS011;441;51.192;6.788;2022-12-18T04:29:56;9.23;;;8.93;;
908;SDS011;441;51.192;6.788;2022-12-18T04:32:24;9.30;;;8.87;;
908;SDS011;441;51.192;6.788;2022-12-18T04:34:51;9.07;;;8.77;;
908;SDS011;441;51.192;6.788;2022-12-18T04:37:18;10.77;;;10.30;;
908;SDS011;441;51.192;6.788;2022-12-18T04:39:45;8.83;;;8.53;;
908;SDS011;441;51.192;6.788;2022-12-18T04:42:12;9.10;;;8.80;;
908;SDS011;441;51.192;6.788;2022-12-18T04:44:38;9.27;;;8.97;;
908;SDS011;441;51.192;6.788;2022-12-18T04:47:05;9.60;;;9.20;;
908;SDS011;441;51.192;6.788;2022-12-18T04:49:33;9.67;;;9.37;;
908;SDS011;441;51.192;6.788;2022-12-18T04:52:01;9.57;;;9.10;;
908;SDS011;441;51.192;6.788;2022-12-18T04:54:28;9.23;;;8.90;;
908;SDS011;441;51.192;6.788;2022-12-18T04:56:55;9.87;;;9.47;;
908;SDS011;441;51.192;6.788;2022-12-18T04:59:22;9.50;;;9.20;;
908;SDS011;441;51.192;6.788;2022-12-18T05:01:49;8.83;;;8.53;;
908;SDS011;441;51.192;6.788;2022-12-18T05:04:16;10.10;;;9.70;;
908;SDS011;441;51.192;6.788;2022-12-18T05:06:44;9.07;;;8.67;;
908;SDS011;441;51.192;6.788;2022-12-18T05:09:11;10.13;;;9.73;;
908;SDS011;441;51.192;6.788;2022-12-18T05:11:37;10.20;;;9.80;;
908;SDS011;441;51.192;6.788;2022-12-18T05:14:04;9.30;;;8.90;;
908;SDS011;441;51.192;6.788;2022-12-18T05:16:31;8.40;;;8.20;;
908;SDS011;441;51.192;6.788;2022-12-18T05:18:58;8.97;;;8.67;;
908;SDS011;441;51.192;6.788;2022-12-18T05:21:25;9.40;;;9.00;;
908;SDS011;441;51.192;6.788;2022-12-18T05:23:53;9.27;;;8.87;;
908;SDS011;441;51.192;6.788;2022-12-18T05:26:20;9.67;;;9.37;;
908;SDS011;441;51.192;6.788;2022-12-18T05:28:47;9.90;;;9.47;;
908;SDS011;441;51.192;6.788;2022-12-18T05:31:14;8.90;;;8.60;;
908;SDS011;441;51.192;6.788;2022-12-18T05:33:41;10.20;;;9.70;;
908;SDS011;441;51.192;6.788;2022-12-18T05:36:08;9.40;;;9.10;;
908;SDS011;441;51.192;6.788;2022-12-18T05:38:37;8.93;;;8.63;;
908;SDS011;441;51.192;6.788;2022-12-18T05:41:06;9.83;;;9.27;;
908;SDS011;441;51.192;6.788;2022-12-18T05:43:34;9.27;;;8.87;;
908;SDS011;441;51.192;6.788;2022-12-18T05:46:03;9.60;;;9.30;;
908;SDS011;441;51.192;6.788;2022-12-18T05:48:31;9.80;;;9.40;;
908;SDS011;441;51.192;6.788;2022-12-18T05:51:03;9.43;;;9.10;;
908;SDS011;441;51.192;6.788;2022-12-18T05:53:32;10.20;;;9.77;;
908;SDS011;441;51.192;6.788;2022-12-18T05:55:59;9.40;;;9.10;;
908;SDS011;441;51.192;6.788;2022-12-18T05:58:29;9.67;;;9.37;;
908;SDS011;441;51.192;6.788;2022-12-18T06:00:56;10.00;;;9.63;;
908;SDS011;441;51.192;6.788;2022-12-18T06:03:24;10.10;;;9.70;;
908;SDS011;441;51.192;6.788;2022-12-18T06:05:50;9.93;;;9.53;;
908;SDS011;441;51.192;6.788;2022-12-18T06:08:17;9.60;;;9.20;;
908;SDS011;441;51.192;6.788;2022-12-18T06:10:49;9.80;;;9.40;;
908;SDS011;441;51.192;6.788;2022-12-18T06:13:17;9.63;;;9.33;;
908;SDS011;441;51.192;6.788;2022-12-18T06:15:46;9.37;;;9.07;;
908;SDS011;441;51.192;6.788;2022-12-18T06:18:13;8.80;;;8.40;;
908;SDS011;441;51.192;6.788;2022-12-18T06:20:40;9.60;;;9.27;;
908;SDS011;441;51.192;6.788;2022-12-18T06:23:07;9.50;;;9.10;;
908;SDS011;441;51.192;6.788;2022-12-18T06:25:36;9.47;;;9.17;;
908;SDS011;441;51.192;6.788;2022-12-18T06:28:04;9.80;;;9.50;;
908;SDS011;441;51.192;6.788;2022-12-18T06:30:31;10.70;;;10.30;;
908;SDS011;441;51.192;6.788;2022-12-18T06:32:59;8.73;;;8.43;;
908;SDS011;441;51.192;6.788;2022-12-18T06:35:26;9.90;;;9.50;;
908;SDS011;441;51.192;6.788;2022-12-18T06:37:53;9.23;;;8.93;;
908;SDS011;441;51.192;6.788;2022-12-18T06:40:20;9.10;;;8.80;;
908;SDS011;441;51.192;6.788;2022-12-18T06:42:47;9.27;;;8.93;;
908;SDS011;441;51.192;6.788;2022-12-18T06:45:13;10.13;;;9.63;;
908;SDS011;441;51.192;6.788;2022-12-18T06:47:42;9.53;;;9.17;;
908;SDS011;441;51.192;6.788;2022-12-18T06:50:10;9.40;;;9.10;;
908;SDS011;441;51.192;6.788;2022-12-18T06:52:37;9.50;;;9.10;;
908;SDS011;441;51.192;6.788;2022-12-18T06:55:05;9.70;;;9.40;;
908;SDS011;441;51.192;6.788;2022-12-18T06:57:37;9.70;;;9.40;;
908;SDS011;441;51.192;6.788;2022-12-18T07:00:05;10.57;;;10.17;;
908;SDS011;441;51.192;6.788;2022-12-18T07:02:33;9.67;;;9.27;;
908;SDS011;441;51.192;6.788;2022-12-18T07:05:00;9.60;;;9.30;;
908;SDS011;441;51.192;6.788;2022-12-18T07:07:28;9.20;;;8.90;;
908;SDS011;441;51.192;6.788;2022-12-18T07:09:55;9.73;;;9.33;;
908;SDS011;441;51.192;6.788;2022-12-18T07:12:22;8.60;;;8.30;;
908;SDS011;441;51.192;6.788;2022-12-18T07:14:49;9.90;;;9.60;;
908;SDS011;441;51.192;6.788;2022-12-18T07:17:16;9.27;;;8.97;;
908;SDS011;441;51.192;6.788;2022-12-18T07:19:42;10.43;;;9.93;;
908;SDS011;441;51.192;6.788;2022-12-18T07:22:09;9.93;;;9.47;;
908;SDS011;441;51.192;6.788;2022-12-18T07:24:38;8.90;;;8.60;;
908;SDS011;441;51.192;6.788;2022-12-18T07:27:05;9.20;;;8.87;;
908;SDS011;441;51.192;6.788;2022-12-18T07:29:31;9.23;;;8.93;;
908;SDS011;441;51.192;6.788;2022-12-18T07:31:58;9.27;;;8.97;;
908;SDS011;441;51.192;6.788;2022-12-18T07:34:25;9.10;;;8.80;;
908;SDS011;441;51.192;6.788;2022-12-18T07:36:52;8.73;;;8.43;;
908;SDS011;441;51.192;6.788;2022-12-18T07:39:19;8.67;;;8.33;;
908;SDS011;441;51.192;6.788;2022-12-18T07:41:47;9.40;;;9.10;;
908;SDS011;441;51.192;6.788;2022-12-18T07:44:34;9.90;;;9.50;;
908;SDS011;441;51.192;6.788;2022-12-18T07:47:01;9.87;;;9.57;;
908;SDS011;441;51.192;6.788;2022-12-18T07:49:28;10.17;;;9.80;;
908;SDS011;441;51.192;6.788;2022-12-18T07:51:55;10.40;;;10.00;;
908;SDS011;441;51.192;6.788;2022-12-18T07:54:23;9.80;;;9.40;;
908;SDS011;441;51.192;6.788;2022-12-18T07:56:52;10.17;;;9.87;;
908;SDS011;441;51.192;6.788;2022-12-18T07:59:18;9.80;;;9.50;;
908;SDS011;441;51.192;6.788;2022-12-18T08:01:45;10.10;;;9.80;;
908;SDS011;441;51.192;6.788;2022-12-18T08:04:12;9.90;;;9.50;;
908;SDS011;441;51.192;6.788;2022-12-18T08:06:39;10.67;;;10.27;;
908;SDS011;441;51.192;6.788;2022-12-18T08:09:06;9.97;;;9.47;;
908;SDS011;441;51.192;6.788;2022-12-18T08:11:34;9.43;;;9.13;;
908;SDS011;441;51.192;6.788;2022-12-18T08:14:02;10.07;;;9.77;;
908;SDS011;441;51.192;6.788;2022-12-18T08:16:29;10.53;;;10.13;;
908;SDS011;441;51.192;6.788;2022-12-18T08:18:56;10.00;;;9.60;;
908;SDS011;441;51.192;6.788;2022-12-18T08:21:24;10.57;;;10.17;;
908;SDS011;441;51.192;6.788;2022-12-18T08:23:52;10.50;;;10.10;;
908;SDS011;441;51.192;6.788;2022-12-18T08:26:20;10.20;;;9.90;;
908;SDS011;441;51.192;6.788;2022-12-18T08:28:48;10.00;;;9.70;;
908;SDS011;441;51.192;6.788;2022-12-18T08:31:16;10.13;;;9.83;;
908;SDS011;441;51.192;6.788;2022-12-18T08:33:43;10.83;;;10.43;;
908;SDS011;441;51.192;6.788;2022-12-18T08:36:10;10.30;;;9.90;;
908;SDS011;441;51.192;6.788;2022-12-18T08:38:37;9.87;;;9.57;;
908;SDS011;441;51.192;6.788;2022-12-18T08:41:05;9.93;;;9.63;;
908;SDS011;441;51.192;6.788;2022-12-18T08:43:33;9.70;;;9.40;;
908;SDS011;441;51.192;6.788;2022-12-18T08:46:19;10.30;;;10.00;;
908;SDS011;441;51.192;6.788;2022-12-18T08:48:47;10.13;;;9.73;;
908;SDS011;441;51.192;6.788;2022-12-18T08:51:16;10.33;;;9.93;;
908;SDS011;441;51.192;6.788;2022-12-18T08:53:43;10.50;;;10.10;;
908;SDS011;441;51.192;6.788;2022-12-18T08:56:11;9.70;;;9.40;;
908;SDS011;441;51.192;6.788;2022-12-18T08:58:38;10.13;;;9.73;;
908;SDS011;441;51.192;6.788;2022-12-18T09:01:06;10.43;;;10.03;;
908;SDS011;441;51.192;6.788;2022-12-18T09:03:36;10.40;;;10.00;;
908;SDS011;441;51.192;6.788;2022-12-18T09:06:03;10.47;;;10.17;;
908;SDS011;441;51.192;6.788;2022-12-18T09:08:31;9.60;;;9.30;;
908;SDS011;441;51.192;6.788;2022-12-18T09:10:57;10.53;;;10.10;;
908;SDS011;441;51.192;6.788;2022-12-18T09:13:24;10.50;;;10.10;;
908;SDS011;441;51.192;6.788;2022-12-18T09:15:52;10.27;;;9.87;;
908;SDS011;441;51.192;6.788;2022-12-18T09:18:20;14.17;;;13.67;;
908;SDS011;441;51.192;6.788;2022-12-18T09:20:55;13.43;;;12.83;;
908;SDS011;441;51.192;6.788;2022-12-18T09:23:28;14.67;;;14.17;;
908;SDS011;441;51.192;6.788;2022-12-18T09:26:00;13.90;;;13.30;;
908;SDS011;441;51.192;6.788;2022-12-18T09:28:33;14.43;;;14.03;;
908;SDS011;441;51.192;6.788;2022-12-18T09:31:06;14.03;;;13.63;;
908;SDS011;441;51.192;6.788;2022-12-18T09:33:39;13.20;;;12.77;;
908;SDS011;441;51.192;6.788;2022-12-18T09:36:11;16.57;;;15.80;;
908;SDS011;441;51.192;6.788;2022-12-18T09:38:44;14.10;;;13.30;;
908;SDS011;441;51.192;6.788;2022-12-18T09:41:18;13.40;;;13.00;;
908;SDS011;441;51.192;6.788;2022-12-18T09:43:59;14.27;;;13.67;;
908;SDS011;441;51.192;6.788;2022-12-18T09:46:29;14.67;;;14.10;;
908;SDS011;441;51.192;6.788;2022-12-18T09:48:59;14.23;;;13.73;;
908;SDS011;441;51.192;6.788;2022-12-18T09:51:32;14.83;;;14.27;;
908;SDS011;441;51.192;6.788;2022-12-18T09:54:03;14.50;;;13.90;;
908;SDS011;441;51.192;6.788;2022-12-18T09:56:34;14.10;;;13.50;;
908;SDS011;441;51.192;6.788;2022-12-18T09:59:05;14.60;;;14.10;;
908;SDS011;441;51.192;6.788;2022-12-18T10:01:32;14.37;;;13.70;;
908;SDS011;441;51.192;6.788;2022-12-18T10:03:59;13.10;;;12.60;;
908;SDS011;441;51.192;6.788;2022-12-18T10:06:35;14.90;;;14.30;;
908;SDS011;441;51.192;6.788;2022-12-18T10:09:09;14.63;;;14.00;;
908;SDS011;441;51.192;6.788;2022-12-18T10:11:46;15.00;;;14.40;;
908;SDS011;441;51.192;6.788;2022-12-18T10:14:21;14.47;;;13.87;;
908;SDS011;441;51.192;6.788;2022-12-18T10:16:56;13.20;;;12.60;;
908;SDS011;441;51.192;6.788;2022-12-18T10:19:34;13.00;;;12.47;;
908;SDS011;441;51.192;6.788;2022-12-18T10:22:18;13.27;;;12.77;;
908;SDS011;441;51.192;6.788;2022-12-18T10:24:53;13.70;;;13.20;;
908;SDS011;441;51.192;6.788;2022-12-18T10:27:24;12.73;;;12.43;;
908;SDS011;441;51.192;6.788;2022-12-18T10:29:52;13.17;;;12.77;;
908;SDS011;441;51.192;6.788;2022-12-18T10:32:19;13.70;;;13.07;;
908;SDS011;441;51.192;6.788;2022-12-18T10:34:48;14.23;;;13.73;;
908;SDS011;441;51.192;6.788;2022-12-18T10:37:18;13.07;;;12.67;;
908;SDS011;441;51.192;6.788;2022-12-18T10:39:47;12.73;;;12.33;;
908;SDS011;441;51.192;6.788;2022-12-18T10:42:33;11.70;;;10.93;;
908;SDS011;441;51.192;6.788;2022-12-18T10:45:00;7.40;;;7.00;;
908;SDS011;441;51.192;6.788;2022-12-18T10:47:29;8.17;;;7.70;;
908;SDS011;441;51.192;6.788;2022-12-18T10:49:56;8.13;;;7.73;;
908;SDS011;441;51.192;6.788;2022-12-18T10:52:24;7.10;;;6.80;;
908;SDS011;441;51.192;6.788;2022-12-18T10:54:54;7.80;;;7.40;;
908;SDS011;441;51.192;6.788;2022-12-18T10:57:30;8.00;;;7.50;;
908;SDS011;441;51.192;6.788;2022-12-18T11:00:03;7.57;;;7.27;;
908;SDS011;441;51.192;6.788;2022-12-18T11:02:50;7.13;;;6.83;;
908;SDS011;441;51.192;6.788;2022-12-18T11:05:27;7.83;;;7.43;;
908;SDS011;441;51.192;6.788;2022-12-18T11:07:57;7.50;;;7.20;;
908;SDS011;441;51.192;6.788;2022-12-18T11:10:26;7.80;;;7.50;;
908;SDS011;441;51.192;6.788;2022-12-18T11:12:56;8.10;;;7.70;;
908;SDS011;441;51.192;6.788;2022-12-18T11:15:36;13.10;;;12.10;;
908;SDS011;441;51.192;6.788;2022-12-18T11:18:14;12.60;;;11.87;;
908;SDS011;441;51.192;6.788;2022-12-18T11:20:44;12.00;;;11.50;;
908;SDS011;441;51.192;6.788;2022-12-18T11:23:19;12.63;;;12.13;;
908;SDS011;441;51.192;6.788;2022-12-18T11:25:58;13.10;;;12.60;;
908;SDS011;441;51.192;6.788;2022-12-18T11:28:28;12.43;;;11.93;;
908;SDS011;441;51.192;6.788;2022-12-18T11:31:11;14.70;;;13.67;;
908;SDS011;441;51.192;6.788;2022-12-18T11:33:44;12.80;;;12.30;;
908;SDS011;441;51.192;6.788;2022-12-18T11:36:17;13.00;;;12.50;;
908;SDS011;441;51.192;6.788;2022-12-18T11:38:47;13.10;;;12.50;;
908;SDS011;441;51.192;6.788;2022-12-18T11:41:21;13.37;;;12.87;;
908;SDS011;441;51.192;6.788;2022-12-18T11:44:14;13.63;;;12.93;;
908;SDS011;441;51.192;6.788;2022-12-18T11:46:51;12.97;;;12.47;;
908;SDS011;441;51.192;6.788;2022-12-18T11:49:22;13.10;;;12.60;;
908;SDS011;441;51.192;6.788;2022-12-18T11:51:53;13.80;;;13.10;;
908;SDS011;441;51.192;6.788;2022-12-18T11:54:26;13.73;;;13.17;;
908;SDS011;441;51.192;6.788;2022-12-18T11:56:53;13.40;;;12.80;;
908;SDS011;441;51.192;6.788;2022-12-18T11:59:27;13.23;;;12.63;;
908;SDS011;441;51.192;6.788;2022-12-18T12:02:02;14.57;;;14.00;;
908;SDS011;441;51.192;6.788;2022-12-18T12:04:48;14.10;;;13.60;;
908;SDS011;441;51.192;6.788;2022-12-18T12:07:31;13.30;;;12.80;;
908;SDS011;441;51.192;6.788;2022-12-18T12:10:09;13.37;;;12.87;;
908;SDS011;441;51.192;6.788;2022-12-18T12:12:49;14.27;;;13.67;;
908;SDS011;441;51.192;6.788;2022-12-18T12:15:32;14.37;;;13.87;;
908;SDS011;441;51.192;6.788;2022-12-18T12:18:07;13.67;;;13.17;;
908;SDS011;441;51.192;6.788;2022-12-18T12:20:47;11.90;;;11.50;;
908;SDS011;441;51.192;6.788;2022-12-18T12:23:22;11.20;;;10.80;;
908;SDS011;441;51.192;6.788;2022-12-18T12:25:58;11.73;;;11.33;;
908;SDS011;441;51.192;6.788;2022-12-18T12:31:29;10.60;;;10.20;;
908;SDS011;441;51.192;6.788;2022-12-18T12:34:09;11.80;;;11.30;;
908;SDS011;441;51.192;6.788;2022-12-18T12:36:45;10.87;;;10.37;;
908;SDS011;441;51.192;6.788;2022-12-18T12:39:27;10.80;;;10.40;;
908;SDS011;441;51.192;6.788;2022-12-18T12:41:57;13.37;;;12.67;;
908;SDS011;441;51.192;6.788;2022-12-18T12:44:43;13.20;;;12.23;;
908;SDS011;441;51.192;6.788;2022-12-18T12:47:14;14.70;;;13.77;;
908;SDS011;441;51.192;6.788;2022-12-18T12:49:46;19.60;;;17.70;;
908;SDS011;441;51.192;6.788;2022-12-18T12:52:15;25.33;;;21.60;;
908;SDS011;441;51.192;6.788;2022-12-18T12:54:52;32.30;;;29.10;;
908;SDS011;441;51.192;6.788;2022-12-18T12:57:26;37.03;;;30.97;;
908;SDS011;441;51.192;6.788;2022-12-18T12:59:57;37.37;;;33.80;;
908;SDS011;441;51.192;6.788;2022-12-18T13:02:30;36.53;;;32.07;;
908;SDS011;441;51.192;6.788;2022-12-18T13:05:02;35.00;;;31.37;;
908;SDS011;441;51.192;6.788;2022-12-18T13:07:37;40.60;;;35.67;;
908;SDS011;441;51.192;6.788;2022-12-18T13:10:12;36.53;;;32.70;;
908;SDS011;441;51.192;6.788;2022-12-18T13:13:01;39.03;;;35.13;;
908;SDS011;441;51.192;6.788;2022-12-18T13:15:31;42.27;;;37.67;;
908;SDS011;441;51.192;6.788;2022-12-18T13:18:16;41.00;;;37.10;;
908;SDS011;441;51.192;6.788;2022-12-18T13:20:45;41.63;;;37.00;;
908;SDS011;441;51.192;6.788;2022-12-18T13:29:02;41.93;;;37.53;;
908;SDS011;441;51.192;6.788;2022-12-18T13:34:28;40.73;;;36.27;;
908;SDS011;441;51.192;6.788;2022-12-18T13:36:56;44.30;;;39.63;;
908;SDS011;441;51.192;6.788;2022-12-18T13:39:43;40.70;;;36.97;;
908;SDS011;441;51.192;6.788;2022-12-18T13:45:37;37.03;;;33.47;;
908;SDS011;441;51.192;6.788;2022-12-18T13:48:20;37.17;;;33.20;;
908;SDS011;441;51.192;6.788;2022-12-18T13:50:53;43.47;;;35.40;;
908;SDS011;441;51.192;6.788;2022-12-18T13:53:26;34.77;;;31.80;;
908;SDS011;441;51.192;6.788;2022-12-18T13:55:56;35.63;;;32.13;;
908;SDS011;441;51.192;6.788;2022-12-18T13:58:23;35.60;;;32.20;;
908;SDS011;441;51.192;6.788;2022-12-18T14:00:51;33.37;;;30.40;;
908;SDS011;441;51.192;6.788;2022-12-18T14:03:20;31.83;;;28.93;;
908;SDS011;441;51.192;6.788;2022-12-18T14:05:52;31.63;;;28.57;;
908;SDS011;441;51.192;6.788;2022-12-18T14:08:21;31.87;;;29.10;;
908;SDS011;441;51.192;6.788;2022-12-18T14:10:53;28.63;;;26.20;;
908;SDS011;441;51.192;6.788;2022-12-18T14:13:23;30.40;;;27.97;;
908;SDS011;441;51.192;6.788;2022-12-18T14:15:54;30.83;;;27.80;;
908;SDS011;441;51.192;6.788;2022-12-18T14:18:23;27.50;;;25.20;;
908;SDS011;441;51.192;6.788;2022-12-18T14:20:53;26.70;;;24.60;;
908;SDS011;441;51.192;6.788;2022-12-18T14:23:26;29.37;;;26.77;;
908;SDS011;441;51.192;6.788;2022-12-18T14:25:58;27.87;;;25.50;;
908;SDS011;441;51.192;6.788;2022-12-18T14:28:25;28.27;;;25.93;;
908;SDS011;441;51.192;6.788;2022-12-18T14:30:53;27.63;;;25.00;;
908;SDS011;441;51.192;6.788;2022-12-18T14:33:22;27.30;;;24.83;;
908;SDS011;441;51.192;6.788;2022-12-18T14:35:54;28.10;;;25.17;;
908;SDS011;441;51.192;6.788;2022-12-18T14:38:25;27.30;;;24.87;;
908;SDS011;441;51.192;6.788;2022-12-18T14:40:59;25.00;;;23.00;;
908;SDS011;441;51.192;6.788;2022-12-18T14:43:27;24.60;;;22.50;;
908;SDS011;441;51.192;6.788;2022-12-18T14:45:56;24.60;;;22.40;;
908;SDS011;441;51.192;6.788;2022-12-18T14:48:30;24.83;;;22.67;;
908;SDS011;441;51.192;6.788;2022-12-18T14:51:02;24.40;;;22.10;;
908;SDS011;441;51.192;6.788;2022-12-18T14:53:35;26.90;;;24.20;;
908;SDS011;441;51.192;6.788;2022-12-18T14:56:12;25.13;;;22.60;;
908;SDS011;441;51.192;6.788;2022-12-18T14:58:48;24.23;;;21.93;;
908;SDS011;441;51.192;6.788;2022-12-18T15:01:21;25.27;;;22.83;;
908;SDS011;441;51.192;6.788;2022-12-18T15:03:51;25.70;;;23.17;;
908;SDS011;441;51.192;6.788;2022-12-18T15:06:23;27.07;;;23.70;;
908;SDS011;441;51.192;6.788;2022-12-18T15:08:56;22.37;;;19.90;;
908;SDS011;441;51.192;6.788;2022-12-18T15:11:25;23.53;;;21.27;;
908;SDS011;441;51.192;6.788;2022-12-18T15:13:53;22.47;;;19.97;;
908;SDS011;441;51.192;6.788;2022-12-18T15:16:21;23.60;;;20.47;;
908;SDS011;441;51.192;6.788;2022-12-18T15:18:48;21.97;;;20.07;;
908;SDS011;441;51.192;6.788;2022-12-18T15:21:16;21.33;;;19.53;;
908;SDS011;441;51.192;6.788;2022-12-18T15:23:48;20.00;;;18.27;;
908;SDS011;441;51.192;6.788;2022-12-18T15:26:17;20.97;;;18.77;;
908;SDS011;441;51.192;6.788;2022-12-18T15:28:46;20.80;;;19.00;;
908;SDS011;441;51.192;6.788;2022-12-18T15:31:28;19.93;;;18.03;;
908;SDS011;441;51.192;6.788;2022-12-18T15:34:09;21.77;;;19.77;;
908;SDS011;441;51.192;6.788;2022-12-18T15:36:40;21.23;;;19.30;;
908;SDS011;441;51.192;6.788;2022-12-18T15:39:09;19.97;;;18.20;;
908;SDS011;441;51.192;6.788;2022-12-18T15:41:38;18.10;;;16.90;;
908;SDS011;441;51.192;6.788;2022-12-18T15:44:16;17.47;;;16.30;;
908;SDS011;441;51.192;6.788;2022-12-18T15:46:49;17.57;;;16.30;;
908;SDS011;441;51.192;6.788;2022-12-18T15:49:16;18.17;;;16.40;;
908;SDS011;441;51.192;6.788;2022-12-18T15:51:50;18.17;;;16.87;;
908;SDS011;441;51.192;6.788;2022-12-18T15:54:19;40.67;;;36.57;;
908;SDS011;441;51.192;6.788;2022-12-18T15:57:08;50.83;;;45.33;;
908;SDS011;441;51.192;6.788;2022-12-18T15:59:50;47.20;;;42.40;;
908;SDS011;441;51.192;6.788;2022-12-18T16:02:19;63.07;;;56.57;;
908;SDS011;441;51.192;6.788;2022-12-18T16:04:48;67.20;;;60.07;;